sensor_id;sensor_type;location;lat;lon;timestamp;temperature;humidity
50570;DHT22;36525;49.398;7.614;2023-02-26T00:00:08;-2.00;99.90
50570;DHT22;36525;49.398;7.614;2023-02-26T00:02:41;-1.90;99.90
50570;DHT22;36525;49.398;7.614;2023-02-26T00:05:10;-1.90;99.90
50570;DHT22;36525;49.398;7.614;2023-02-26T00:07:38;-1.90;99.90
50570;DHT22;36525;49.398;7.614;2023-02-26T00:10:06;-1.80;99.90
50570;DHT22;36525;49.398;7.614;2023-02-26T00:12:35;-1.70;99.90
50570;DHT22;36525;49.398;7.614;2023-02-26T00:15:03;-1.70;99.90
50570;DHT22;36525;49.398;7.614;2023-02-26T00:20:09;-1.80;99.90
50570;DHT22;36525;49.398;7.614;2023-02-26T00:22:38;-1.80;99.90
50570;DHT22;36525;49.398;7.614;2023-02-26T00:25:06;-1.80;99.90
50570;DHT22;36525;49.398;7.614;2023-02-26T00:27:33;-1.70;99.90
50570;DHT22;36525;49.398;7.614;2023-02-26T00:30:00;-1.70;99.90
50570;DHT22;36525;49.398;7.614;2023-02-26T00:32:28;-1.70;99.90
50570;DHT22;36525;49.398;7.614;2023-02-26T00:34:57;-1.70;99.90
50570;DHT22;36525;49.398;7.614;2023-02-26T00:37:26;-1.80;99.90
50570;DHT22;36525;49.398;7.614;2023-02-26T00:42:40;-1.70;99.90
50570;DHT22;36525;49.398;7.614;2023-02-26T00:45:07;-1.80;99.90
50570;DHT22;36525;49.398;7.614;2023-02-26T00:50:18;-1.90;99.90
50570;DHT22;36525;49.398;7.614;2023-02-26T00:52:48;-1.90;99.90
50570;DHT22;36525;49.398;7.614;2023-02-26T00:55:20;-2.00;99.90
50570;DHT22;36525;49.398;7.614;2023-02-26T00:57:47;-2.00;99.90
50570;DHT22;36525;49.398;7.614;2023-02-26T01:00:14;-2.10;99.90
50570;DHT22;36525;49.398;7.614;2023-02-26T01:02:41;-2.20;99.90
50570;DHT22;36525;49.398;7.614;2023-02-26T01:05:09;-2.30;99.90
50570;DHT22;36525;49.398;7.614;2023-02-26T01:10:46;-2.40;99.90
50570;DHT22;36525;49.398;7.614;2023-02-26T01:13:13;-2.40;99.90
50570;DHT22;36525;49.398;7.614;2023-02-26T01:15:42;-2.40;99.90
50570;DHT22;36525;49.398;7.614;2023-02-26T01:18:15;-2.30;99.90
50570;DHT22;36525;49.398;7.614;2023-02-26T01:20:59;-2.30;99.90
50570;DHT22;36525;49.398;7.614;2023-02-26T01:23:34;-2.30;99.90
50570;DHT22;36525;49.398;7.614;2023-02-26T01:26:14;-2.40;99.90
50570;DHT22;36525;49.398;7.614;2023-02-26T01:28:46;-2.40;99.90
50570;DHT22;36525;49.398;7.614;2023-02-26T01:34:14;-2.40;99.90
50570;DHT22;36525;49.398;7.614;2023-02-26T01:36:48;-2.40;99.90
50570;DHT22;36525;49.398;7.614;2023-02-26T01:39:27;-2.30;99.90
50570;DHT22;36525;49.398;7.614;2023-02-26T01:41:59;-2.20;99.90
50570;DHT22;36525;49.398;7.614;2023-02-26T01:47:09;-2.00;99.90
50570;DHT22;36525;49.398;7.614;2023-02-26T01:49:46;-1.90;99.90
50570;DHT22;36525;49.398;7.614;2023-02-26T01:55:22;-1.60;99.90
50570;DHT22;36525;49.398;7.614;2023-02-26T01:57:50;-1.60;99.90
50570;DHT22;36525;49.398;7.614;2023-02-26T02:00:19;-1.50;99.90
50570;DHT22;36525;49.398;7.614;2023-02-26T02:02:46;-1.50;99.90
50570;DHT22;36525;49.398;7.614;2023-02-26T02:05:18;-1.50;99.90
50570;DHT22;36525;49.398;7.614;2023-02-26T02:08:11;-1.40;99.90
50570;DHT22;36525;49.398;7.614;2023-02-26T02:10:44;-1.30;99.90
50570;DHT22;36525;49.398;7.614;2023-02-26T02:18:36;-1.30;99.90
50570;DHT22;36525;49.398;7.614;2023-02-26T02:23:56;-1.30;99.90
50570;DHT22;36525;49.398;7.614;2023-02-26T02:26:41;-1.30;99.90
50570;DHT22;36525;49.398;7.614;2023-02-26T02:32:09;-1.30;99.90
50570;DHT22;36525;49.398;7.614;2023-02-26T02:40:09;-1.50;99.90
50570;DHT22;36525;49.398;7.614;2023-02-26T02:42:45;-1.40;99.90
50570;DHT22;36525;49.398;7.614;2023-02-26T02:45:18;-1.50;99.90
50570;DHT22;36525;49.398;7.614;2023-02-26T02:47:49;-1.50;99.90
50570;DHT22;36525;49.398;7.614;2023-02-26T02:50:42;-1.60;99.90
50570;DHT22;36525;49.398;7.614;2023-02-26T02:53:20;-1.60;99.90
50570;DHT22;36525;49.398;7.614;2023-02-26T02:55:54;-1.60;99.90
50570;DHT22;36525;49.398;7.614;2023-02-26T02:58:25;-1.60;99.90
50570;DHT22;36525;49.398;7.614;2023-02-26T03:00:55;-1.50;99.90
50570;DHT22;36525;49.398;7.614;2023-02-26T03:03:36;-1.50;99.90
50570;DHT22;36525;49.398;7.614;2023-02-26T03:06:10;-1.40;99.90
50570;DHT22;36525;49.398;7.614;2023-02-26T03:08:38;-1.40;99.90
50570;DHT22;36525;49.398;7.614;2023-02-26T03:11:09;-1.40;99.90
50570;DHT22;36525;49.398;7.614;2023-02-26T03:13:38;-1.40;99.90
50570;DHT22;36525;49.398;7.614;2023-02-26T03:21:28;-1.60;99.90
50570;DHT22;36525;49.398;7.614;2023-02-26T03:24:05;-1.60;99.90
50570;DHT22;36525;49.398;7.614;2023-02-26T03:26:46;-1.60;99.90
50570;DHT22;36525;49.398;7.614;2023-02-26T03:29:28;-1.60;99.90
50570;DHT22;36525;49.398;7.614;2023-02-26T03:32:05;-1.60;99.90
50570;DHT22;36525;49.398;7.614;2023-02-26T03:34:49;-1.60;99.90
50570;DHT22;36525;49.398;7.614;2023-02-26T03:37:21;-1.50;99.90
50570;DHT22;36525;49.398;7.614;2023-02-26T03:39:53;-1.60;99.90
50570;DHT22;36525;49.398;7.614;2023-02-26T03:42:26;-1.70;99.90
50570;DHT22;36525;49.398;7.614;2023-02-26T03:47:30;-1.80;99.90
50570;DHT22;36525;49.398;7.614;2023-02-26T03:50:09;-1.70;99.90
50570;DHT22;36525;49.398;7.614;2023-02-26T03:52:39;-1.80;99.90
50570;DHT22;36525;49.398;7.614;2023-02-26T03:57:42;-1.90;99.90
50570;DHT22;36525;49.398;7.614;2023-02-26T04:00:09;-1.90;99.90
50570;DHT22;36525;49.398;7.614;2023-02-26T04:02:40;-2.00;99.90
50570;DHT22;36525;49.398;7.614;2023-02-26T04:05:14;-2.00;99.90
50570;DHT22;36525;49.398;7.614;2023-02-26T04:07:44;-2.10;99.90
50570;DHT22;36525;49.398;7.614;2023-02-26T04:10:13;-2.00;99.90
50570;DHT22;36525;49.398;7.614;2023-02-26T04:12:42;-2.10;99.90
50570;DHT22;36525;49.398;7.614;2023-02-26T04:15:09;-2.10;99.90
50570;DHT22;36525;49.398;7.614;2023-02-26T04:17:36;-2.10;99.90
50570;DHT22;36525;49.398;7.614;2023-02-26T04:20:04;-2.10;99.90
50570;DHT22;36525;49.398;7.614;2023-02-26T04:22:38;-2.10;99.90
50570;DHT22;36525;49.398;7.614;2023-02-26T04:25:05;-2.10;99.90
50570;DHT22;36525;49.398;7.614;2023-02-26T04:27:32;-2.10;99.90
50570;DHT22;36525;49.398;7.614;2023-02-26T04:29:59;-2.00;99.90
50570;DHT22;36525;49.398;7.614;2023-02-26T04:32:26;-2.00;99.90
50570;DHT22;36525;49.398;7.614;2023-02-26T04:34:53;-2.00;99.90
50570;DHT22;36525;49.398;7.614;2023-02-26T04:37:20;-1.90;99.90
50570;DHT22;36525;49.398;7.614;2023-02-26T04:39:47;-2.00;99.90
50570;DHT22;36525;49.398;7.614;2023-02-26T04:42:14;-1.90;99.90
50570;DHT22;36525;49.398;7.614;2023-02-26T04:44:41;-1.80;99.90
50570;DHT22;36525;49.398;7.614;2023-02-26T04:47:07;-1.80;99.90
50570;DHT22;36525;49.398;7.614;2023-02-26T04:49:34;-1.70;99.90
50570;DHT22;36525;49.398;7.614;2023-02-26T04:52:01;-1.70;99.90
50570;DHT22;36525;49.398;7.614;2023-02-26T04:54:29;-1.70;99.90
50570;DHT22;36525;49.398;7.614;2023-02-26T04:56:56;-1.70;99.90
50570;DHT22;36525;49.398;7.614;2023-02-26T04:59:23;-1.60;99.90
50570;DHT22;36525;49.398;7.614;2023-02-26T05:01:49;-1.60;99.90
50570;DHT22;36525;49.398;7.614;2023-02-26T05:04:16;-1.60;99.90
50570;DHT22;36525;49.398;7.614;2023-02-26T05:06:43;-1.60;99.90
50570;DHT22;36525;49.398;7.614;2023-02-26T05:09:10;-1.60;99.90
50570;DHT22;36525;49.398;7.614;2023-02-26T05:11:37;-1.60;99.90
50570;DHT22;36525;49.398;7.614;2023-02-26T05:14:04;-1.60;99.90
50570;DHT22;36525;49.398;7.614;2023-02-26T05:16:31;-1.60;99.90
50570;DHT22;36525;49.398;7.614;2023-02-26T05:18:58;-1.60;99.90
50570;DHT22;36525;49.398;7.614;2023-02-26T05:21:25;-1.60;99.90
50570;DHT22;36525;49.398;7.614;2023-02-26T05:23:52;-1.60;99.90
50570;DHT22;36525;49.398;7.614;2023-02-26T05:26:19;-1.60;99.90
50570;DHT22;36525;49.398;7.614;2023-02-26T05:28:46;-1.60;99.90
50570;DHT22;36525;49.398;7.614;2023-02-26T05:31:12;-1.60;99.90
50570;DHT22;36525;49.398;7.614;2023-02-26T05:33:40;-1.50;99.90
50570;DHT22;36525;49.398;7.614;2023-02-26T05:36:07;-1.50;99.90
50570;DHT22;36525;49.398;7.614;2023-02-26T05:38:34;-1.50;99.90
50570;DHT22;36525;49.398;7.614;2023-02-26T05:41:04;-1.50;99.90
50570;DHT22;36525;49.398;7.614;2023-02-26T05:43:31;-1.50;99.90
50570;DHT22;36525;49.398;7.614;2023-02-26T05:45:59;-1.50;99.90
50570;DHT22;36525;49.398;7.614;2023-02-26T05:48:26;-1.50;99.90
50570;DHT22;36525;49.398;7.614;2023-02-26T05:50:53;-1.50;99.90
50570;DHT22;36525;49.398;7.614;2023-02-26T05:53:20;-1.40;99.90
50570;DHT22;36525;49.398;7.614;2023-02-26T05:55:47;-1.40;99.90
50570;DHT22;36525;49.398;7.614;2023-02-26T05:58:14;-1.30;99.90
50570;DHT22;36525;49.398;7.614;2023-02-26T06:00:42;-1.30;99.90
50570;DHT22;36525;49.398;7.614;2023-02-26T06:03:08;-1.30;99.90
50570;DHT22;36525;49.398;7.614;2023-02-26T06:05:38;-1.30;99.90
50570;DHT22;36525;49.398;7.614;2023-02-26T06:08:05;-1.30;99.90
50570;DHT22;36525;49.398;7.614;2023-02-26T06:10:32;-1.40;99.90
50570;DHT22;36525;49.398;7.614;2023-02-26T06:12:59;-1.40;99.90
50570;DHT22;36525;49.398;7.614;2023-02-26T06:15:26;-1.40;99.90
50570;DHT22;36525;49.398;7.614;2023-02-26T06:17:53;-1.50;99.90
50570;DHT22;36525;49.398;7.614;2023-02-26T06:20:20;-1.50;99.90
50570;DHT22;36525;49.398;7.614;2023-02-26T06:22:47;-1.50;99.90
50570;DHT22;36525;49.398;7.614;2023-02-26T06:25:14;-1.50;99.90
50570;DHT22;36525;49.398;7.614;2023-02-26T06:27:41;-1.40;99.90
50570;DHT22;36525;49.398;7.614;2023-02-26T06:30:08;-1.50;99.90
50570;DHT22;36525;49.398;7.614;2023-02-26T06:32:36;-1.50;99.90
50570;DHT22;36525;49.398;7.614;2023-02-26T06:35:03;-1.50;99.90
50570;DHT22;36525;49.398;7.614;2023-02-26T06:37:31;-1.60;99.90
50570;DHT22;36525;49.398;7.614;2023-02-26T06:39:58;-1.60;99.90
50570;DHT22;36525;49.398;7.614;2023-02-26T06:42:28;-1.60;99.90
50570;DHT22;36525;49.398;7.614;2023-02-26T06:44:54;-1.60;99.90
50570;DHT22;36525;49.398;7.614;2023-02-26T06:47:22;-1.50;99.90
50570;DHT22;36525;49.398;7.614;2023-02-26T06:49:50;-1.50;99.90
50570;DHT22;36525;49.398;7.614;2023-02-26T06:52:17;-1.50;99.90
50570;DHT22;36525;49.398;7.614;2023-02-26T06:54:44;-1.50;99.90
50570;DHT22;36525;49.398;7.614;2023-02-26T06:57:11;-1.50;99.90
50570;DHT22;36525;49.398;7.614;2023-02-26T06:59:38;-1.50;99.90
50570;DHT22;36525;49.398;7.614;2023-02-26T07:02:05;-1.40;99.90
50570;DHT22;36525;49.398;7.614;2023-02-26T07:04:31;-1.30;99.90
50570;DHT22;36525;49.398;7.614;2023-02-26T07:06:58;-1.30;99.90
50570;DHT22;36525;49.398;7.614;2023-02-26T07:09:25;-1.30;99.90
50570;DHT22;36525;49.398;7.614;2023-02-26T07:13:36;-1.30;99.90
50570;DHT22;36525;49.398;7.614;2023-02-26T07:16:03;-1.20;99.90
50570;DHT22;36525;49.398;7.614;2023-02-26T07:18:35;-1.20;99.90
50570;DHT22;36525;49.398;7.614;2023-02-26T07:21:03;-1.10;99.90
50570;DHT22;36525;49.398;7.614;2023-02-26T07:23:30;-1.10;99.90
50570;DHT22;36525;49.398;7.614;2023-02-26T07:25:57;-1.10;99.90
50570;DHT22;36525;49.398;7.614;2023-02-26T07:28:24;-1.20;99.90
50570;DHT22;36525;49.398;7.614;2023-02-26T07:30:53;-1.00;99.90
50570;DHT22;36525;49.398;7.614;2023-02-26T07:33:21;-0.90;99.90
50570;DHT22;36525;49.398;7.614;2023-02-26T07:35:48;-1.00;99.90
50570;DHT22;36525;49.398;7.614;2023-02-26T07:38:15;-1.10;99.90
50570;DHT22;36525;49.398;7.614;2023-02-26T07:40:44;-1.00;99.90
50570;DHT22;36525;49.398;7.614;2023-02-26T07:43:12;-0.90;99.90
50570;DHT22;36525;49.398;7.614;2023-02-26T07:45:39;-0.80;99.90
50570;DHT22;36525;49.398;7.614;2023-02-26T07:48:06;-0.90;99.90
50570;DHT22;36525;49.398;7.614;2023-02-26T07:50:33;-0.90;99.90
50570;DHT22;36525;49.398;7.614;2023-02-26T07:53:00;-1.00;99.90
50570;DHT22;36525;49.398;7.614;2023-02-26T07:55:27;-1.00;99.90
50570;DHT22;36525;49.398;7.614;2023-02-26T07:57:53;-0.90;99.90
50570;DHT22;36525;49.398;7.614;2023-02-26T08:00:20;-0.80;99.90
50570;DHT22;36525;49.398;7.614;2023-02-26T08:02:47;-0.90;99.90
50570;DHT22;36525;49.398;7.614;2023-02-26T08:05:14;-0.80;99.90
50570;DHT22;36525;49.398;7.614;2023-02-26T08:07:41;-0.70;99.90
50570;DHT22;36525;49.398;7.614;2023-02-26T08:10:08;-0.60;99.90
50570;DHT22;36525;49.398;7.614;2023-02-26T08:12:36;-0.50;99.90
50570;DHT22;36525;49.398;7.614;2023-02-26T08:15:03;-0.60;99.90
50570;DHT22;36525;49.398;7.614;2023-02-26T08:17:31;-0.60;99.90
50570;DHT22;36525;49.398;7.614;2023-02-26T08:19:58;-0.60;99.90
50570;DHT22;36525;49.398;7.614;2023-02-26T08:22:28;-0.50;99.90
50570;DHT22;36525;49.398;7.614;2023-02-26T08:24:54;-0.40;99.90
50570;DHT22;36525;49.398;7.614;2023-02-26T08:27:21;-0.40;99.90
50570;DHT22;36525;49.398;7.614;2023-02-26T08:29:48;-0.40;99.90
50570;DHT22;36525;49.398;7.614;2023-02-26T08:32:16;-0.30;99.90
50570;DHT22;36525;49.398;7.614;2023-02-26T08:34:45;-0.50;99.90
50570;DHT22;36525;49.398;7.614;2023-02-26T08:37:12;-0.40;99.90
50570;DHT22;36525;49.398;7.614;2023-02-26T08:39:39;-0.40;99.90
50570;DHT22;36525;49.398;7.614;2023-02-26T08:42:07;-0.40;99.90
50570;DHT22;36525;49.398;7.614;2023-02-26T08:44:34;-0.50;99.90
50570;DHT22;36525;49.398;7.614;2023-02-26T08:47:01;-0.40;99.90
50570;DHT22;36525;49.398;7.614;2023-02-26T08:49:29;-0.50;99.90
50570;DHT22;36525;49.398;7.614;2023-02-26T08:51:56;-0.50;99.90
50570;DHT22;36525;49.398;7.614;2023-02-26T08:54:23;-0.30;99.90
50570;DHT22;36525;49.398;7.614;2023-02-26T08:56:50;-0.10;99.90
50570;DHT22;36525;49.398;7.614;2023-02-26T08:59:18;-0.20;99.90
50570;DHT22;36525;49.398;7.614;2023-02-26T09:01:45;-0.20;99.90
50570;DHT22;36525;49.398;7.614;2023-02-26T09:04:12;0.10;99.90
50570;DHT22;36525;49.398;7.614;2023-02-26T09:06:39;0.30;99.90
50570;DHT22;36525;49.398;7.614;2023-02-26T09:09:06;0.50;99.90
50570;DHT22;36525;49.398;7.614;2023-02-26T09:11:33;0.30;99.90
50570;DHT22;36525;49.398;7.614;2023-02-26T09:14:00;0.50;99.90
50570;DHT22;36525;49.398;7.614;2023-02-26T09:16:29;0.40;99.90
50570;DHT22;36525;49.398;7.614;2023-02-26T09:18:57;0.40;99.90
50570;DHT22;36525;49.398;7.614;2023-02-26T09:21:24;0.20;99.90
50570;DHT22;36525;49.398;7.614;2023-02-26T09:23:51;0.10;99.90
50570;DHT22;36525;49.398;7.614;2023-02-26T09:26:18;0.10;99.90
50570;DHT22;36525;49.398;7.614;2023-02-26T09:28:45;0.10;99.90
50570;DHT22;36525;49.398;7.614;2023-02-26T09:31:11;0.30;99.90
50570;DHT22;36525;49.398;7.614;2023-02-26T09:33:38;0.30;99.90
50570;DHT22;36525;49.398;7.614;2023-02-26T09:36:06;0.50;99.90
50570;DHT22;36525;49.398;7.614;2023-02-26T09:38:33;0.60;99.90
50570;DHT22;36525;49.398;7.614;2023-02-26T09:41:37;0.40;99.90
50570;DHT22;36525;49.398;7.614;2023-02-26T09:46:41;0.50;99.90
50570;DHT22;36525;49.398;7.614;2023-02-26T09:52:10;0.50;99.90
50570;DHT22;36525;49.398;7.614;2023-02-26T09:54:43;0.60;99.90
50570;DHT22;36525;49.398;7.614;2023-02-26T09:57:19;0.50;99.90
50570;DHT22;36525;49.398;7.614;2023-02-26T09:59:51;0.40;99.90
50570;DHT22;36525;49.398;7.614;2023-02-26T10:02:20;0.60;99.90
50570;DHT22;36525;49.398;7.614;2023-02-26T10:10:21;0.40;99.90
50570;DHT22;36525;49.398;7.614;2023-02-26T10:12:58;0.50;99.90
50570;DHT22;36525;49.398;7.614;2023-02-26T10:15:27;0.40;99.90
50570;DHT22;36525;49.398;7.614;2023-02-26T10:18:05;0.30;99.90
50570;DHT22;36525;49.398;7.614;2023-02-26T10:20:47;0.40;99.90
50570;DHT22;36525;49.398;7.614;2023-02-26T10:26:25;0.50;99.90
50570;DHT22;36525;49.398;7.614;2023-02-26T10:31:54;0.50;99.90
50570;DHT22;36525;49.398;7.614;2023-02-26T10:34:31;0.40;99.90
50570;DHT22;36525;49.398;7.614;2023-02-26T10:39:55;0.50;99.90
50570;DHT22;36525;49.398;7.614;2023-02-26T10:42:44;0.80;99.90
50570;DHT22;36525;49.398;7.614;2023-02-26T10:50:58;1.00;99.90
50570;DHT22;36525;49.398;7.614;2023-02-26T10:53:27;1.30;99.90
50570;DHT22;36525;49.398;7.614;2023-02-26T10:56:06;1.50;99.90
50570;DHT22;36525;49.398;7.614;2023-02-26T10:58:37;1.40;99.90
50570;DHT22;36525;49.398;7.614;2023-02-26T11:01:06;1.40;99.90
50570;DHT22;36525;49.398;7.614;2023-02-26T11:03:40;1.20;99.90
50570;DHT22;36525;49.398;7.614;2023-02-26T11:06:09;1.20;99.90
50570;DHT22;36525;49.398;7.614;2023-02-26T11:08:42;1.20;99.90
50570;DHT22;36525;49.398;7.614;2023-02-26T11:11:09;1.00;99.90
50570;DHT22;36525;49.398;7.614;2023-02-26T11:13:37;1.00;99.90
50570;DHT22;36525;49.398;7.614;2023-02-26T11:16:12;1.00;99.90
50570;DHT22;36525;49.398;7.614;2023-02-26T11:18:43;1.10;99.90
50570;DHT22;36525;49.398;7.614;2023-02-26T11:21:17;1.20;99.90
50570;DHT22;36525;49.398;7.614;2023-02-26T11:23:45;1.10;99.90
50570;DHT22;36525;49.398;7.614;2023-02-26T11:26:15;1.10;99.90
50570;DHT22;36525;49.398;7.614;2023-02-26T11:28:44;1.20;99.90
50570;DHT22;36525;49.398;7.614;2023-02-26T11:31:17;1.00;99.90
50570;DHT22;36525;49.398;7.614;2023-02-26T11:33:49;1.30;99.90
50570;DHT22;36525;49.398;7.614;2023-02-26T11:36:22;1.40;99.90
50570;DHT22;36525;49.398;7.614;2023-02-26T11:39:00;1.30;99.90
50570;DHT22;36525;49.398;7.614;2023-02-26T11:41:34;1.00;99.90
50570;DHT22;36525;49.398;7.614;2023-02-26T11:44:07;1.10;99.90
50570;DHT22;36525;49.398;7.614;2023-02-26T11:46:42;1.40;99.90
50570;DHT22;36525;49.398;7.614;2023-02-26T11:49:11;1.60;99.90
50570;DHT22;36525;49.398;7.614;2023-02-26T11:51:45;1.60;99.90
50570;DHT22;36525;49.398;7.614;2023-02-26T11:54:22;1.70;99.90
50570;DHT22;36525;49.398;7.614;2023-02-26T11:56:50;1.80;99.90
50570;DHT22;36525;49.398;7.614;2023-02-26T11:59:18;2.30;99.90
50570;DHT22;36525;49.398;7.614;2023-02-26T12:01:47;2.50;99.90
50570;DHT22;36525;49.398;7.614;2023-02-26T12:04:22;2.70;99.90
50570;DHT22;36525;49.398;7.614;2023-02-26T12:06:53;3.10;99.90
50570;DHT22;36525;49.398;7.614;2023-02-26T12:09:21;2.70;99.90
50570;DHT22;36525;49.398;7.614;2023-02-26T12:12:06;2.50;99.90
50570;DHT22;36525;49.398;7.614;2023-02-26T12:32:14;1.80;99.90
50570;DHT22;36525;49.398;7.614;2023-02-26T12:35:16;1.80;99.90
50570;DHT22;36525;49.398;7.614;2023-02-26T12:46:15;2.30;99.90
50570;DHT22;36525;49.398;7.614;2023-02-26T12:49:04;2.50;99.90
50570;DHT22;36525;49.398;7.614;2023-02-26T13:11:10;2.90;99.90
50570;DHT22;36525;49.398;7.614;2023-02-26T13:13:52;3.00;99.90
50570;DHT22;36525;49.398;7.614;2023-02-26T13:19:58;3.10;99.90
50570;DHT22;36525;49.398;7.614;2023-02-26T13:27:33;2.40;99.90
50570;DHT22;36525;49.398;7.614;2023-02-26T13:32:50;2.40;99.90
50570;DHT22;36525;49.398;7.614;2023-02-26T13:35:24;2.50;99.90
50570;DHT22;36525;49.398;7.614;2023-02-26T13:37:56;2.20;99.90
50570;DHT22;36525;49.398;7.614;2023-02-26T13:59:25;2.20;99.90
50570;DHT22;36525;49.398;7.614;2023-02-26T14:02:02;2.10;99.90
50570;DHT22;36525;49.398;7.614;2023-02-26T14:04:58;2.20;99.90
50570;DHT22;36525;49.398;7.614;2023-02-26T14:10:15;2.20;99.90
50570;DHT22;36525;49.398;7.614;2023-02-26T14:13:10;2.10;99.90
50570;DHT22;36525;49.398;7.614;2023-02-26T14:15:52;2.10;99.90
50570;DHT22;36525;49.398;7.614;2023-02-26T14:18:30;2.10;99.90
50570;DHT22;36525;49.398;7.614;2023-02-26T14:23:59;2.40;99.90
50570;DHT22;36525;49.398;7.614;2023-02-26T14:26:31;2.40;99.90
50570;DHT22;36525;49.398;7.614;2023-02-26T14:29:13;2.60;99.90
50570;DHT22;36525;49.398;7.614;2023-02-26T14:34:49;2.70;99.90
50570;DHT22;36525;49.398;7.614;2023-02-26T14:37:19;2.70;99.90
50570;DHT22;36525;49.398;7.614;2023-02-26T14:39:50;2.80;99.90
50570;DHT22;36525;49.398;7.614;2023-02-26T14:42:40;2.60;99.90
50570;DHT22;36525;49.398;7.614;2023-02-26T14:45:16;2.40;99.90
50570;DHT22;36525;49.398;7.614;2023-02-26T14:47:59;2.40;99.90
50570;DHT22;36525;49.398;7.614;2023-02-26T14:50:35;2.40;99.90
50570;DHT22;36525;49.398;7.614;2023-02-26T14:56:13;2.30;99.90
50570;DHT22;36525;49.398;7.614;2023-02-26T15:04:50;2.00;99.90
50570;DHT22;36525;49.398;7.614;2023-02-26T15:18:49;2.10;99.90
50570;DHT22;36525;49.398;7.614;2023-02-26T15:24:11;2.30;99.90
50570;DHT22;36525;49.398;7.614;2023-02-26T15:26:44;2.30;99.90
50570;DHT22;36525;49.398;7.614;2023-02-26T15:29:13;2.20;99.90
50570;DHT22;36525;49.398;7.614;2023-02-26T15:31:54;2.10;99.90
50570;DHT22;36525;49.398;7.614;2023-02-26T15:34:24;2.10;99.90
50570;DHT22;36525;49.398;7.614;2023-02-26T15:36:51;2.00;99.90
50570;DHT22;36525;49.398;7.614;2023-02-26T15:39:21;1.90;99.90
50570;DHT22;36525;49.398;7.614;2023-02-26T15:41:49;2.00;99.90
50570;DHT22;36525;49.398;7.614;2023-02-26T15:44:28;2.00;99.90
50570;DHT22;36525;49.398;7.614;2023-02-26T15:46:58;2.20;99.90
50570;DHT22;36525;49.398;7.614;2023-02-26T15:49:27;2.90;99.90
50570;DHT22;36525;49.398;7.614;2023-02-26T15:51:56;3.90;99.90
50570;DHT22;36525;49.398;7.614;2023-02-26T15:54:27;3.80;99.90
50570;DHT22;36525;49.398;7.614;2023-02-26T15:57:00;3.90;99.90
50570;DHT22;36525;49.398;7.614;2023-02-26T15:59:28;4.20;99.90
50570;DHT22;36525;49.398;7.614;2023-02-26T16:01:57;3.50;99.90
50570;DHT22;36525;49.398;7.614;2023-02-26T16:06:56;5.90;99.60
50570;DHT22;36525;49.398;7.614;2023-02-26T16:11:54;5.00;98.90
50570;DHT22;36525;49.398;7.614;2023-02-26T16:14:23;4.60;99.50
50570;DHT22;36525;49.398;7.614;2023-02-26T16:16:52;4.00;99.90
50570;DHT22;36525;49.398;7.614;2023-02-26T16:19:41;4.70;99.90
50570;DHT22;36525;49.398;7.614;2023-02-26T16:22:21;5.60;99.20
50570;DHT22;36525;49.398;7.614;2023-02-26T16:24:52;4.80;99.00
50570;DHT22;36525;49.398;7.614;2023-02-26T16:27:25;3.10;99.90
50570;DHT22;36525;49.398;7.614;2023-02-26T16:29:55;2.70;99.90
50570;DHT22;36525;49.398;7.614;2023-02-26T16:32:24;2.30;99.90
50570;DHT22;36525;49.398;7.614;2023-02-26T16:34:53;1.90;99.90
50570;DHT22;36525;49.398;7.614;2023-02-26T16:43:02;1.50;99.90
50570;DHT22;36525;49.398;7.614;2023-02-26T16:48:02;1.30;99.90
50570;DHT22;36525;49.398;7.614;2023-02-26T16:50:54;1.20;99.90
50570;DHT22;36525;49.398;7.614;2023-02-26T16:53:23;1.20;99.90
50570;DHT22;36525;49.398;7.614;2023-02-26T16:55:58;1.10;99.90
50570;DHT22;36525;49.398;7.614;2023-02-26T16:58:25;1.00;99.90
50570;DHT22;36525;49.398;7.614;2023-02-26T17:01:00;1.00;99.90
50570;DHT22;36525;49.398;7.614;2023-02-26T17:03:33;0.90;99.90
50570;DHT22;36525;49.398;7.614;2023-02-26T17:06:02;1.00;99.90
50570;DHT22;36525;49.398;7.614;2023-02-26T17:08:40;0.90;99.90
50570;DHT22;36525;49.398;7.614;2023-02-26T17:11:17;1.00;99.90
50570;DHT22;36525;49.398;7.614;2023-02-26T17:13:46;1.00;99.90
50570;DHT22;36525;49.398;7.614;2023-02-26T17:16:23;0.90;99.90
50570;DHT22;36525;49.398;7.614;2023-02-26T17:18:51;0.90;99.90
50570;DHT22;36525;49.398;7.614;2023-02-26T17:21:18;0.80;99.90
50570;DHT22;36525;49.398;7.614;2023-02-26T17:23:45;0.80;99.90
50570;DHT22;36525;49.398;7.614;2023-02-26T17:26:11;0.80;99.90
50570;DHT22;36525;49.398;7.614;2023-02-26T17:28:39;0.70;99.90
50570;DHT22;36525;49.398;7.614;2023-02-26T17:31:07;0.80;99.90
50570;DHT22;36525;49.398;7.614;2023-02-26T17:33:34;0.70;99.90
50570;DHT22;36525;49.398;7.614;2023-02-26T17:36:02;0.70;99.90
50570;DHT22;36525;49.398;7.614;2023-02-26T17:38:30;0.70;99.90
50570;DHT22;36525;49.398;7.614;2023-02-26T17:40:58;0.70;99.90
50570;DHT22;36525;49.398;7.614;2023-02-26T17:43:26;0.70;99.90
50570;DHT22;36525;49.398;7.614;2023-02-26T17:45:53;0.80;99.90
50570;DHT22;36525;49.398;7.614;2023-02-26T17:48:21;0.70;99.90
50570;DHT22;36525;49.398;7.614;2023-02-26T17:50:55;0.70;99.90
50570;DHT22;36525;49.398;7.614;2023-02-26T17:53:23;0.70;99.90
50570;DHT22;36525;49.398;7.614;2023-02-26T17:55:54;0.60;99.90
50570;DHT22;36525;49.398;7.614;2023-02-26T17:58:25;0.70;99.90
50570;DHT22;36525;49.398;7.614;2023-02-26T18:00:57;0.60;99.90
50570;DHT22;36525;49.398;7.614;2023-02-26T18:03:24;0.50;99.90
50570;DHT22;36525;49.398;7.614;2023-02-26T18:05:52;0.60;99.90
50570;DHT22;36525;49.398;7.614;2023-02-26T18:08:24;0.60;99.90
50570;DHT22;36525;49.398;7.614;2023-02-26T18:10:52;0.60;99.90
50570;DHT22;36525;49.398;7.614;2023-02-26T18:13:19;0.60;99.90
50570;DHT22;36525;49.398;7.614;2023-02-26T18:15:47;0.60;99.90
50570;DHT22;36525;49.398;7.614;2023-02-26T18:18:15;0.60;99.90
50570;DHT22;36525;49.398;7.614;2023-02-26T18:20:42;0.70;99.90
50570;DHT22;36525;49.398;7.614;2023-02-26T18:23:11;0.70;99.90
50570;DHT22;36525;49.398;7.614;2023-02-26T18:25:39;0.60;99.90
50570;DHT22;36525;49.398;7.614;2023-02-26T18:28:09;0.70;99.90
50570;DHT22;36525;49.398;7.614;2023-02-26T18:30:41;0.70;99.90
50570;DHT22;36525;49.398;7.614;2023-02-26T18:33:10;0.60;99.90
50570;DHT22;36525;49.398;7.614;2023-02-26T18:35:38;0.60;99.90
50570;DHT22;36525;49.398;7.614;2023-02-26T18:38:15;0.70;99.90
50570;DHT22;36525;49.398;7.614;2023-02-26T18:40:48;0.50;99.90
50570;DHT22;36525;49.398;7.614;2023-02-26T18:43:15;0.50;99.90
50570;DHT22;36525;49.398;7.614;2023-02-26T18:45:43;0.50;99.90
50570;DHT22;36525;49.398;7.614;2023-02-26T18:48:12;0.50;99.90
50570;DHT22;36525;49.398;7.614;2023-02-26T18:50:44;0.40;99.90
50570;DHT22;36525;49.398;7.614;2023-02-26T18:53:12;0.40;99.90
50570;DHT22;36525;49.398;7.614;2023-02-26T18:55:42;0.40;99.90
50570;DHT22;36525;49.398;7.614;2023-02-26T18:58:09;0.40;99.90
50570;DHT22;36525;49.398;7.614;2023-02-26T19:00:36;0.40;99.90
50570;DHT22;36525;49.398;7.614;2023-02-26T19:03:03;0.40;99.90
50570;DHT22;36525;49.398;7.614;2023-02-26T19:05:30;0.30;99.90
50570;DHT22;36525;49.398;7.614;2023-02-26T19:07:56;0.30;99.90
50570;DHT22;36525;49.398;7.614;2023-02-26T19:10:25;0.30;99.90
50570;DHT22;36525;49.398;7.614;2023-02-26T19:12:55;0.30;99.90